Home > Products > Valid Products > MTR

000
SAZS31 NSTU 271003
MTRPPG
METAR NSTU 270957Z 12021G27KT 10SM -SHRA SCT018TCU BKN045 OVC100
25/22 A2996 RMK TCU ALQDS SLP144 T02480220=




000
SAZS31 NSTU 270900
MTRPPG
METAR NSTU 270855Z 13018G27KT 10SM -SHRA SCT018TCU BKN045 OVC100
24/21 A2995 RMK TCU ALQDS SHRAB43 SLP142 60001 8/42/ T02390214 52012=




000
SAZS31 NSTU 270754
MTRPPG
METAR NSTU 270750Z 12019KT 10SM SCT025 OVC045 26/21 A2993 RMK SLP135
T02580207=





000
SAZS31 NSTU 270656
MTRPPG
METAR NSTU 270651Z 11021KT 10SM SCT025 OVC045 25/21 A2992 RMK SLP134
T02500208=





000
SAZS31 NSTU 270611
MTRPPG
METAR NSTU 270552Z 12021KT 10SM SCT023 OVC045 26/20 A2991 RMK RAE30
SLP130 60000 8/5// T02570202 10266 20255 52012=




000
SAZS31 NSTU 270455
MTRPPG
METAR NSTU 270452Z 12022G27KT 11SM -RA SCT023 OVC035 26/21 A2990 RMK
RAB42 SLP127 T02550206=




000
SAZS31 NSTU 270355
MTRPPG
METAR NSTU 270353Z 13018KT 12SM SCT024 BKN040 OVC090 26/20 A2988 RMK
SLP120 T02590198=




000
SAZS31 NSTU 270300
MTRPPG
METAR NSTU 270258Z 14019KT 12SM BKN024 OVC035 26/20 A2988 RMK SLP119
8/4// T02620200 56012=




000
SAZS31 NSTU 270153
MTRPPG
METAR NSTU 270151Z 14019KT 12SM BKN028 OVC070 26/20 A2989 RMK SLP122
 T02620199=




000
SAZS31 NSTU 270053
MTRPPG
METAR NSTU 270051Z 13018KT 12SM BKN028 27/20 A2990 RMK SLP125
T02650202=




000
SAZS31 NSTU 262356
MTRPPG
METAR NSTU 262350Z 14020G26KT 12SM SCT024 27/20 A2991 RMK SLP130
8/100 T02660204 10273 20250 56017=




000
SAZS31 NSTU 262300
MTRPPG
METAR NSTU 262250Z 14019G25KT 12SM SCT024 27/21 A2992 RMK SLP134
T02720206=




000
SAZS31 NSTU 262204
MTRPPG
METAR NSTU 262151Z 14021G26KT 12SM SCT024 27/21 A2994 RMK SLP141
T02730209=




000
SAZS31 NSTU 262055
MTRPPG
METAR NSTU 262051Z 12018KT 12SM BKN024 BKN040 26/20 A2996 RMK SLP147
 8/400 T02630201 52010=




000
SAZS31 NSTU 262002
MTRPPG
METAR NSTU 261959Z 13019KT 12SM BKN024 BKN050 BKN100 26/20 A2996 RMK
 RAE20 SLP146 T02600201=




000
SAZS31 NSTU 261857
MTRPPG
METAR NSTU 261852Z 13021G25KT 12SM -RA BKN024 BKN050 BKN100 25/20
A2994 RMK SLP141 T02520201=




000
SAZS31 NSTU 261805
MTRPPG
METAR NSTU 261751Z 13017G25KT 11SM SCT022TCU SCT050 BKN100 BKN200
25/20 A2993 RMK TCU NW-NE SLP137 8/478 T02500201 10250 20235 52010=




000
SAZS31 NSTU 261658
MTRPPG
METAR NSTU 261653Z 14016G23KT 10SM SCT025 SCT050 BKN100 OVC200
25/19 A2991 RMK RAE10 SLP130 T02490194=




000
SAZS31 NSTU 261600
MTRPPG
METAR NSTU 261557Z 14019KT 10SM -RA SCT022 BKN045 OVC070 25/20 A2990
RMK RAB50 SLP127 T02480200=




000
SAZS31 NSTU 261531
MTRPPG
METAR NSTU 261455Z 14017G23KT 10SM SCT022 BKN045 OVC070 25/20 A2990
RMK SLP127 8/41/ T02460201 57012=




000
SAZS31 NSTU 261356
MTRPPG
METAR NSTU 261353Z 15021G26KT 10SM SCT022 BKN045 OVC070 24/21 A2991
RMK SLP130 T02400205=




000
SAZS31 NSTU 261255
MTRPPG
METAR NSTU 261251Z 14020G24KT 10SM SCT022 BKN045 OVC070 25/21 A2992
RMK SLP132 T02450205=




000
SAZS31 NSTU 261157
MTRPPG
METAR NSTU 261150Z 14017G27KT 10SM SCT022 BKN045 OVC070 24/21 A2994
RMK SLP139 8/42/ T02350207 10249 20235 57005=




000
SAZS31 NSTU 261056
MTRPPG
METAR NSTU 261053Z 14020G23KT 10SM SCT022 BKN045 OVC070 24/20 A2995
RMK SLP142 T02420201 402630242=




000
SAZS31 NSTU 260958
MTRPPG
METAR NSTU 260953Z 15019G23KT 10SM SCT022 BKN045 OVC070 24/20 A2996
RMK SLP146 T02440203=




000
SAZS31 NSTU 260858
MTRPPG
METAR NSTU 260854Z 14019G27KT 10SM SCT022 BKN045 OVC070 25/20 A2995
RMK SLP144 60000 8/44/ T02470201 52015=




000
SAZS31 NSTU 260807
MTRPPG
METAR NSTU 260750Z 14018G25KT 10SM SCT022 BKN045 OVC070 25/21 A2994
RMK SHRAE15 SLP139 T02450207=





000
SAZS31 NSTU 260658
MTRPPG
METAR NSTU 260651Z 14019KT 10SM -SHRA SCT022 BKN045 OVC070 25/20
A2993 RMK SHRAB45 SLP135 T02490199=





000
SAZS31 NSTU 260602
MTRPPG
METAR NSTU 260550Z 14019KT 10SM SCT022 BKN045 OVC070 25/20 A2991 RMK
SLP129 60000 8/87/ T02490200 10261 20245 53014=






000
SAZS31 NSTU 260456
MTRPPG
METAR NSTU 260452Z 14018G25KT 10SM SCT022 BKN045 OVC070 25/20 A2989
RMK SLP122 T02450202=





000
SAZS31 NSTU 260401
MTRPPG
METAR NSTU 260353Z 14020G26KT 10SM SCT022 BKN045 OVC070 25/21 A2987
RMK SHRAE30 SLP117 T02470205=





000
SAZS31 NSTU 260305
MTRPPG
METAR NSTU 260254Z 12022KT 10SM -SHRA SCT022 BKN045 OVC070 25/21
A2987 RMK SLP115 60000 8/87/ T02480208 56012=





000
SAZS31 NSTU 260153
MTRPPG
METAR NSTU 260150Z 14017KT 12SM SCT024 SCT045 BKN070 26/20 A2987 RMK
 SLP115 T02590199=




000
SAZS31 NSTU 260055
MTRPPG
METAR NSTU 260051Z 14018KT 12SM SCT024 BKN045 OVC070 26/20 A2988 RMK
 SLP120 T02610201=




000
SAZS31 NSTU 252356
MTRPPG
METAR NSTU 252350Z 14019KT 12SM BKN024 BKN045 BKN070 26/20 A2990 RMK
 SLP127 8/870 T02600202 10263 20252 56015=




000
SAZS31 NSTU 252254
MTRPPG
METAR NSTU 252250Z 15018KT 12SM BKN024 BKN045 BKN070 26/20 A2992 RMK
 SLP132 T02610203=




000
SAZS31 NSTU 252157
MTRPPG
METAR NSTU 252153Z 15020KT 12SM BKN024 BKN045 BKN070 26/20 A2995 RMK
 SLP142 T02630203=




000
SAZS31 NSTU 252057
MTRPPG
METAR NSTU 252053Z 15019KT 12SM BKN024 BKN045 26/21 A2995 RMK SLP142
 8/800 T02620205 51017=




000
SAZS31 NSTU 252000
MTRPPG
METAR NSTU 251956Z 15019KT 12SM BKN024 OVC045 26/20 A2994 RMK SLP141
 T02570201=




000
SAZS31 NSTU 251902
MTRPPG
METAR NSTU 251857Z 15019G23KT 12SM BKN024 BKN045 26/20 A2993 RMK
SLP135 T02550201=




000
SAZS31 NSTU 251756
MTRPPG
METAR NSTU 251750Z 14017KT 12SM SCT018TCU BKN045 BKN100 OVC200 25/20
A2990 RMK TCU N-E-SE SLP125 8/418 T02520201 10253 20250 52012=




000
SAZS31 NSTU 251653
MTRPPG
METAR NSTU 251650Z 14016KT 10SM SCT018TCU SCT045 BKN100 BKN200 25/20
A2988 RMK TCU N-E SLP120 T02530203=




000
SAZS31 NSTU 251552
MTRPPG
METAR NSTU 251550Z 15016KT 10SM FEW023 SCT045 SCT100 BKN200 25/20
A2986 RMK SLP113 T02500202=




000
SAZS31 NSTU 251454
MTRPPG
METAR NSTU 251450Z 14014KT 10SM SCT023 SCT045 BKN100 25/20 A2987 RMK
SLP113 8/440 T02520202 57014=




000
SAZS31 NSTU 251356
MTRPPG
METAR NSTU 251352Z 13015KT 10SM SCT023 SCT045 BKN100 25/20 A2987 RMK
SLP117 T02510198=




000
SAZS31 NSTU 251254
MTRPPG
METAR NSTU 251251Z 14016KT 10SM SCT023 SCT045 BKN100 25/20 A2989 RMK
SLP122 T02510197=




000
SAZS31 NSTU 251202
MTRPPG
METAR NSTU 251156Z 13013KT 10SM SCT023 SCT045 BKN100 25/20 A2990 RMK
SLP127 8/440 T02520195 10256 20251 57008=




000
SAZS31 NSTU 251101
MTRPPG
METAR NSTU 251057Z 13012KT 10SM BKN023 OVC045 25/19 A2992 RMK SLP132
T02530193 402680247=




000
SAZS31 NSTU 250953
MTRPPG
METAR NSTU 250950Z 13015KT 10SM BKN023 OVC045 25/19 A2993 RMK SLP135
T02510193=




000
SAZS31 NSTU 250905
MTRPPG
METAR NSTU 250850Z 14015KT 10SM BKN023 OVC045 25/20 A2993 RMK SLP135
8/8// T02530195 52012=







000
SAZS31 NSTU 250757
MTRPPG
METAR NSTU 250752Z 14012KT 10SM BKN023 OVC045 25/19 A2993 RMK SLP135
T02530192=







000
SAZS31 NSTU 250701
MTRPPG
METAR NSTU 250652Z 13013KT 10SM BKN023 OVC045 26/20 A2991 RMK SLP130
T02560195=







000
SAZS31 NSTU 250603
MTRPPG
METAR NSTU 250550Z 14013KT 10SM BKN023 OVC045 25/20 A2989 RMK SLP124
8/1// T02540196 10265 20254 53008=





000
SAZS31 NSTU 250454
MTRPPG
METAR NSTU 250450Z 15014KT 12SM BKN023 OVC045 26/20 A2988 RMK SLP120
T02550196=






000
SAZS31 NSTU 250401
MTRPPG
METAR NSTU 250354Z 15014KT 12SM BKN023 OVC045 26/20 A2987 RMK SLP117
T02560199=






000
SAZS31 NSTU 250253
MTRPPG
METAR NSTU 250250Z 14014KT 12SM BKN023 BKN040 26/20 A2987 RMK SLP115
8/400 T02580201 56017=




000
SAZS31 NSTU 250156
MTRPPG
METAR NSTU 250152Z 14014KT 12SM SCT023 BKN040 26/20 A2988 RMK SLP117
T02610203=




000
SAZS31 NSTU 250053
MTRPPG
METAR NSTU 250050Z 14015KT 12SM SCT025TCU SCT050 BKN100 26/20 A2990
RMK TCU NW-NE SLP124 T02630203=




000
SAZS31 NSTU 242357
MTRPPG
METAR NSTU 242351Z 15014KT 12SM SCT025TCU SCT050 BKN100 27/20 A2992
RMK TCU NW-NE SLP132 8/470 T02650202 10268 20249 57020=




000
SAZS31 NSTU 242255
MTRPPG
METAR NSTU 242251Z 15014KT 12SM SCT025 BKN050 27/21 A2994 RMK SLP139
T02680207=




000
SAZS31 NSTU 242152
MTRPPG
METAR NSTU 242150Z 15016KT 12SM SCT023 SCT035 BKN100 BKN200 26/20
A2996 RMK SLP147 T02630202=




000
SAZS31 NSTU 242056
MTRPPG
METAR NSTU 242050Z 15015G21KT 12SM SCT023 BKN035 26/21 A2998 RMK
SLP152 60000 8/400 T02640206 52012=




000
SAZS31 NSTU 241955
MTRPPG
METAR NSTU 241950Z 16016G21KT 12SM BKN023 BKN035 26/20 A2997 RMK
SLP151 T02560202=




000
SAZS31 NSTU 241902
MTRPPG
METAR NSTU 241856Z 15015KT 12SM BKN024 25/20 A2996 RMK SLP147
T02520204=




000
SAZS31 NSTU 241759
MTRPPG
METAR NSTU 241750Z 16014KT 12SM BKN024 25/20 A2994 RMK SLP141 8/100
T02490202 10252 20247 51014=




000
SAZS31 NSTU 241657
MTRPPG
METAR NSTU 241653Z 16015KT 11SM FEW024 SCT040 SCT100 25/21 A2992 RMK
 SLP134 T02480206=




000
SAZS31 NSTU 241555
MTRPPG
METAR NSTU 241550Z 16017KT 10SM FEW024 SCT040 BKN100 25/20 A2991 RMK
 SLP129 T02510204=




000
SAZS31 NSTU 241411
MTRPPG
METAR NSTU 241350Z 15015KT 10SM SCT021 BKN040 BKN100 25/20 A2991 RMK
 SLP129 T02510201=




000
SAZS31 NSTU 241255
MTRPPG
METAR NSTU 241250Z 16017KT 10SM SCT021 BKN040 BKN100 25/21 A2992 RMK
 SLP134 T02510208=




000
SAZS31 NSTU 241157
MTRPPG
METAR NSTU 241150Z 15018KT 10SM SCT021 BKN040 BKN100 25/21 A2994 RMK
 SLP139 70008 8/820 T02520210 10256 20249 56008=




    US Dept of Commerce
    National Oceanic and Atmospheric Administration
    National Weather Service
    1325 East West Highway
    Silver Spring, MD 20910
    Page Author: NWS Internet Services Team
Disclaimer
Information Quality
Credits
Glossary
Privacy Policy
Freedom of Information Act (FOIA)
About Us
Career Opportunities